sensor_id;sensor_type;location;lat;lon;timestamp;P1;durP1;ratioP1;P2;durP2;ratioP2
4700;SDS011;8724;51.272;6.554;2022-12-31T00:01:06;0.60;;;0.60;;
4700;SDS011;8724;51.272;6.554;2022-12-31T00:03:36;0.80;;;0.60;;
4700;SDS011;8724;51.272;6.554;2022-12-31T00:06:13;0.60;;;0.60;;
4700;SDS011;8724;51.272;6.554;2022-12-31T00:08:43;0.50;;;0.50;;
4700;SDS011;8724;51.272;6.554;2022-12-31T00:11:12;0.73;;;0.63;;
4700;SDS011;8724;51.272;6.554;2022-12-31T00:13:41;0.60;;;0.60;;
4700;SDS011;8724;51.272;6.554;2022-12-31T00:16:16;0.60;;;0.60;;
4700;SDS011;8724;51.272;6.554;2022-12-31T00:18:46;0.60;;;0.60;;
4700;SDS011;8724;51.272;6.554;2022-12-31T00:21:18;0.50;;;0.50;;
4700;SDS011;8724;51.272;6.554;2022-12-31T00:23:47;0.57;;;0.57;;
4700;SDS011;8724;51.272;6.554;2022-12-31T00:26:16;0.60;;;0.60;;
4700;SDS011;8724;51.272;6.554;2022-12-31T00:28:49;1.17;;;0.70;;
4700;SDS011;8724;51.272;6.554;2022-12-31T00:31:19;1.00;;;0.70;;
4700;SDS011;8724;51.272;6.554;2022-12-31T00:33:49;0.70;;;0.63;;
4700;SDS011;8724;51.272;6.554;2022-12-31T00:36:20;0.70;;;0.70;;
4700;SDS011;8724;51.272;6.554;2022-12-31T00:38:50;1.27;;;0.97;;
4700;SDS011;8724;51.272;6.554;2022-12-31T00:41:20;0.60;;;0.60;;
4700;SDS011;8724;51.272;6.554;2022-12-31T00:43:49;0.70;;;0.70;;
4700;SDS011;8724;51.272;6.554;2022-12-31T00:46:18;4.90;;;0.70;;
4700;SDS011;8724;51.272;6.554;2022-12-31T00:48:47;0.60;;;0.60;;
4700;SDS011;8724;51.272;6.554;2022-12-31T00:51:17;0.80;;;0.60;;
4700;SDS011;8724;51.272;6.554;2022-12-31T00:53:48;0.60;;;0.60;;
4700;SDS011;8724;51.272;6.554;2022-12-31T00:56:17;0.70;;;0.67;;
4700;SDS011;8724;51.272;6.554;2022-12-31T00:58:48;1.03;;;0.80;;
4700;SDS011;8724;51.272;6.554;2022-12-31T01:01:17;0.70;;;0.70;;
4700;SDS011;8724;51.272;6.554;2022-12-31T01:03:48;0.50;;;0.50;;
4700;SDS011;8724;51.272;6.554;2022-12-31T01:06:17;0.67;;;0.67;;
4700;SDS011;8724;51.272;6.554;2022-12-31T01:08:47;0.73;;;0.70;;
4700;SDS011;8724;51.272;6.554;2022-12-31T01:11:17;0.60;;;0.60;;
4700;SDS011;8724;51.272;6.554;2022-12-31T01:13:49;0.60;;;0.60;;
4700;SDS011;8724;51.272;6.554;2022-12-31T01:16:20;0.50;;;0.50;;
4700;SDS011;8724;51.272;6.554;2022-12-31T01:18:53;0.60;;;0.60;;
4700;SDS011;8724;51.272;6.554;2022-12-31T01:21:24;0.50;;;0.50;;
4700;SDS011;8724;51.272;6.554;2022-12-31T01:23:53;0.50;;;0.50;;
4700;SDS011;8724;51.272;6.554;2022-12-31T01:26:21;1.20;;;0.70;;
4700;SDS011;8724;51.272;6.554;2022-12-31T01:28:50;0.40;;;0.40;;
4700;SDS011;8724;51.272;6.554;2022-12-31T01:31:19;0.70;;;0.50;;
4700;SDS011;8724;51.272;6.554;2022-12-31T01:33:49;1.53;;;0.60;;
4700;SDS011;8724;51.272;6.554;2022-12-31T01:36:21;0.50;;;0.50;;
4700;SDS011;8724;51.272;6.554;2022-12-31T01:38:53;0.50;;;0.50;;
4700;SDS011;8724;51.272;6.554;2022-12-31T01:41:24;0.60;;;0.50;;
4700;SDS011;8724;51.272;6.554;2022-12-31T01:43:54;0.80;;;0.50;;
4700;SDS011;8724;51.272;6.554;2022-12-31T01:46:25;0.60;;;0.50;;
4700;SDS011;8724;51.272;6.554;2022-12-31T01:48:59;0.50;;;0.50;;
4700;SDS011;8724;51.272;6.554;2022-12-31T01:51:31;0.60;;;0.50;;
4700;SDS011;8724;51.272;6.554;2022-12-31T01:54:03;0.50;;;0.50;;
4700;SDS011;8724;51.272;6.554;2022-12-31T01:56:34;0.80;;;0.50;;
4700;SDS011;8724;51.272;6.554;2022-12-31T01:59:05;0.50;;;0.50;;
4700;SDS011;8724;51.272;6.554;2022-12-31T02:01:36;2.40;;;0.60;;
4700;SDS011;8724;51.272;6.554;2022-12-31T02:04:08;0.50;;;0.50;;
4700;SDS011;8724;51.272;6.554;2022-12-31T02:06:40;0.50;;;0.50;;
4700;SDS011;8724;51.272;6.554;2022-12-31T02:09:12;0.50;;;0.50;;
4700;SDS011;8724;51.272;6.554;2022-12-31T02:11:40;0.50;;;0.50;;
4700;SDS011;8724;51.272;6.554;2022-12-31T02:14:10;0.40;;;0.40;;
4700;SDS011;8724;51.272;6.554;2022-12-31T02:16:43;0.50;;;0.50;;
4700;SDS011;8724;51.272;6.554;2022-12-31T02:19:25;0.77;;;0.47;;
4700;SDS011;8724;51.272;6.554;2022-12-31T02:22:17;1.77;;;0.50;;
4700;SDS011;8724;51.272;6.554;2022-12-31T02:25:04;0.50;;;0.50;;
4700;SDS011;8724;51.272;6.554;2022-12-31T02:27:48;0.50;;;0.50;;
4700;SDS011;8724;51.272;6.554;2022-12-31T02:30:26;4.93;;;0.60;;
4700;SDS011;8724;51.272;6.554;2022-12-31T02:33:09;0.50;;;0.50;;
4700;SDS011;8724;51.272;6.554;2022-12-31T02:35:45;0.50;;;0.50;;
4700;SDS011;8724;51.272;6.554;2022-12-31T02:38:18;0.50;;;0.50;;
4700;SDS011;8724;51.272;6.554;2022-12-31T02:40:51;0.50;;;0.50;;
4700;SDS011;8724;51.272;6.554;2022-12-31T02:43:20;0.50;;;0.50;;
4700;SDS011;8724;51.272;6.554;2022-12-31T02:45:53;0.67;;;0.50;;
4700;SDS011;8724;51.272;6.554;2022-12-31T02:48:34;0.40;;;0.40;;
4700;SDS011;8724;51.272;6.554;2022-12-31T02:51:10;0.87;;;0.60;;
4700;SDS011;8724;51.272;6.554;2022-12-31T02:53:52;0.50;;;0.50;;
4700;SDS011;8724;51.272;6.554;2022-12-31T02:56:44;1.20;;;0.80;;
4700;SDS011;8724;51.272;6.554;2022-12-31T02:59:19;0.50;;;0.50;;
4700;SDS011;8724;51.272;6.554;2022-12-31T03:02:10;1.00;;;0.50;;
4700;SDS011;8724;51.272;6.554;2022-12-31T03:04:42;0.50;;;0.50;;
4700;SDS011;8724;51.272;6.554;2022-12-31T03:07:16;0.83;;;0.80;;
4700;SDS011;8724;51.272;6.554;2022-12-31T03:09:46;0.50;;;0.50;;
4700;SDS011;8724;51.272;6.554;2022-12-31T03:12:15;0.70;;;0.60;;
4700;SDS011;8724;51.272;6.554;2022-12-31T03:15:02;0.53;;;0.53;;
4700;SDS011;8724;51.272;6.554;2022-12-31T03:17:33;0.60;;;0.60;;
4700;SDS011;8724;51.272;6.554;2022-12-31T03:20:02;0.60;;;0.60;;
4700;SDS011;8724;51.272;6.554;2022-12-31T03:22:56;0.77;;;0.70;;
4700;SDS011;8724;51.272;6.554;2022-12-31T03:25:25;1.17;;;0.60;;
4700;SDS011;8724;51.272;6.554;2022-12-31T03:28:02;0.73;;;0.53;;
4700;SDS011;8724;51.272;6.554;2022-12-31T03:30:34;0.53;;;0.50;;
4700;SDS011;8724;51.272;6.554;2022-12-31T03:33:05;0.60;;;0.60;;
4700;SDS011;8724;51.272;6.554;2022-12-31T03:35:35;0.57;;;0.57;;
4700;SDS011;8724;51.272;6.554;2022-12-31T03:38:05;0.70;;;0.50;;
4700;SDS011;8724;51.272;6.554;2022-12-31T03:40:36;0.80;;;0.60;;
4700;SDS011;8724;51.272;6.554;2022-12-31T03:43:06;0.83;;;0.50;;
4700;SDS011;8724;51.272;6.554;2022-12-31T03:45:35;0.83;;;0.60;;
4700;SDS011;8724;51.272;6.554;2022-12-31T03:48:05;1.63;;;0.80;;
4700;SDS011;8724;51.272;6.554;2022-12-31T03:50:35;0.70;;;0.70;;
4700;SDS011;8724;51.272;6.554;2022-12-31T03:53:03;1.27;;;1.03;;
4700;SDS011;8724;51.272;6.554;2022-12-31T03:55:32;3.70;;;0.90;;
4700;SDS011;8724;51.272;6.554;2022-12-31T03:58:01;2.77;;;1.00;;
4700;SDS011;8724;51.272;6.554;2022-12-31T04:00:29;1.60;;;0.80;;
4700;SDS011;8724;51.272;6.554;2022-12-31T04:02:58;0.70;;;0.60;;
4700;SDS011;8724;51.272;6.554;2022-12-31T04:05:28;0.60;;;0.60;;
4700;SDS011;8724;51.272;6.554;2022-12-31T04:07:56;2.60;;;0.83;;
4700;SDS011;8724;51.272;6.554;2022-12-31T04:10:25;0.83;;;0.50;;
4700;SDS011;8724;51.272;6.554;2022-12-31T04:12:53;0.70;;;0.60;;
4700;SDS011;8724;51.272;6.554;2022-12-31T04:15:22;0.60;;;0.60;;
4700;SDS011;8724;51.272;6.554;2022-12-31T04:17:51;0.50;;;0.50;;
4700;SDS011;8724;51.272;6.554;2022-12-31T04:20:19;0.50;;;0.50;;
4700;SDS011;8724;51.272;6.554;2022-12-31T04:22:49;0.97;;;0.70;;
4700;SDS011;8724;51.272;6.554;2022-12-31T04:25:17;1.07;;;0.70;;
4700;SDS011;8724;51.272;6.554;2022-12-31T04:27:46;0.70;;;0.60;;
4700;SDS011;8724;51.272;6.554;2022-12-31T04:30:14;2.50;;;0.80;;
4700;SDS011;8724;51.272;6.554;2022-12-31T04:32:42;1.33;;;0.70;;
4700;SDS011;8724;51.272;6.554;2022-12-31T04:35:11;1.23;;;0.70;;
4700;SDS011;8724;51.272;6.554;2022-12-31T04:37:39;0.60;;;0.60;;
4700;SDS011;8724;51.272;6.554;2022-12-31T04:40:09;1.17;;;0.70;;
4700;SDS011;8724;51.272;6.554;2022-12-31T04:42:38;1.10;;;0.60;;
4700;SDS011;8724;51.272;6.554;2022-12-31T04:45:07;1.10;;;0.83;;
4700;SDS011;8724;51.272;6.554;2022-12-31T04:47:36;0.70;;;0.50;;
4700;SDS011;8724;51.272;6.554;2022-12-31T04:50:06;0.53;;;0.53;;
4700;SDS011;8724;51.272;6.554;2022-12-31T04:52:34;0.97;;;0.70;;
4700;SDS011;8724;51.272;6.554;2022-12-31T04:55:09;1.10;;;0.67;;
4700;SDS011;8724;51.272;6.554;2022-12-31T04:57:38;1.10;;;0.70;;
4700;SDS011;8724;51.272;6.554;2022-12-31T05:00:08;1.53;;;0.80;;
4700;SDS011;8724;51.272;6.554;2022-12-31T05:02:37;0.87;;;0.87;;
4700;SDS011;8724;51.272;6.554;2022-12-31T05:05:06;1.17;;;0.70;;
4700;SDS011;8724;51.272;6.554;2022-12-31T05:07:35;2.47;;;0.90;;
4700;SDS011;8724;51.272;6.554;2022-12-31T05:10:03;1.20;;;0.60;;
4700;SDS011;8724;51.272;6.554;2022-12-31T05:12:34;1.17;;;0.77;;
4700;SDS011;8724;51.272;6.554;2022-12-31T05:15:03;0.60;;;0.60;;
4700;SDS011;8724;51.272;6.554;2022-12-31T05:17:32;1.03;;;0.70;;
4700;SDS011;8724;51.272;6.554;2022-12-31T05:20:00;0.70;;;0.70;;
4700;SDS011;8724;51.272;6.554;2022-12-31T05:22:28;1.10;;;0.90;;
4700;SDS011;8724;51.272;6.554;2022-12-31T05:24:57;0.60;;;0.60;;
4700;SDS011;8724;51.272;6.554;2022-12-31T05:27:26;2.70;;;1.47;;
4700;SDS011;8724;51.272;6.554;2022-12-31T05:29:58;3.73;;;1.53;;
4700;SDS011;8724;51.272;6.554;2022-12-31T05:32:27;0.70;;;0.70;;
4700;SDS011;8724;51.272;6.554;2022-12-31T05:34:55;1.00;;;0.73;;
4700;SDS011;8724;51.272;6.554;2022-12-31T05:37:27;1.90;;;1.30;;
4700;SDS011;8724;51.272;6.554;2022-12-31T05:39:55;19.43;;;14.47;;
4700;SDS011;8724;51.272;6.554;2022-12-31T05:42:25;12.17;;;10.90;;
4700;SDS011;8724;51.272;6.554;2022-12-31T05:44:53;2.07;;;1.80;;
4700;SDS011;8724;51.272;6.554;2022-12-31T05:47:23;3.00;;;1.23;;
4700;SDS011;8724;51.272;6.554;2022-12-31T05:49:52;1.43;;;0.90;;
4700;SDS011;8724;51.272;6.554;2022-12-31T05:52:20;0.70;;;0.70;;
4700;SDS011;8724;51.272;6.554;2022-12-31T05:54:50;1.27;;;0.80;;
4700;SDS011;8724;51.272;6.554;2022-12-31T05:57:19;2.23;;;0.77;;
4700;SDS011;8724;51.272;6.554;2022-12-31T05:59:47;0.97;;;0.70;;
4700;SDS011;8724;51.272;6.554;2022-12-31T06:02:15;2.20;;;0.87;;
4700;SDS011;8724;51.272;6.554;2022-12-31T06:04:45;1.00;;;0.80;;
4700;SDS011;8724;51.272;6.554;2022-12-31T06:07:14;2.60;;;0.90;;
4700;SDS011;8724;51.272;6.554;2022-12-31T06:09:43;2.80;;;1.10;;
4700;SDS011;8724;51.272;6.554;2022-12-31T06:12:11;1.20;;;0.70;;
4700;SDS011;8724;51.272;6.554;2022-12-31T06:14:40;2.97;;;0.80;;
4700;SDS011;8724;51.272;6.554;2022-12-31T06:17:11;1.43;;;0.90;;
4700;SDS011;8724;51.272;6.554;2022-12-31T06:19:39;1.77;;;1.20;;
4700;SDS011;8724;51.272;6.554;2022-12-31T06:22:09;2.00;;;0.80;;
4700;SDS011;8724;51.272;6.554;2022-12-31T06:24:37;1.50;;;0.83;;
4700;SDS011;8724;51.272;6.554;2022-12-31T06:27:06;4.70;;;0.87;;
4700;SDS011;8724;51.272;6.554;2022-12-31T06:29:34;2.60;;;0.70;;
4700;SDS011;8724;51.272;6.554;2022-12-31T06:32:03;3.13;;;0.90;;
4700;SDS011;8724;51.272;6.554;2022-12-31T06:34:32;2.63;;;1.20;;
4700;SDS011;8724;51.272;6.554;2022-12-31T06:37:00;1.47;;;0.83;;
4700;SDS011;8724;51.272;6.554;2022-12-31T06:39:31;2.87;;;1.07;;
4700;SDS011;8724;51.272;6.554;2022-12-31T06:41:59;1.87;;;0.97;;
4700;SDS011;8724;51.272;6.554;2022-12-31T06:44:31;1.83;;;1.00;;
4700;SDS011;8724;51.272;6.554;2022-12-31T06:46:59;1.07;;;0.80;;
4700;SDS011;8724;51.272;6.554;2022-12-31T06:49:27;3.70;;;0.87;;
4700;SDS011;8724;51.272;6.554;2022-12-31T06:51:56;2.67;;;0.90;;
4700;SDS011;8724;51.272;6.554;2022-12-31T06:54:25;1.20;;;0.70;;
4700;SDS011;8724;51.272;6.554;2022-12-31T06:56:56;2.03;;;1.13;;
4700;SDS011;8724;51.272;6.554;2022-12-31T06:59:25;1.97;;;0.90;;
4700;SDS011;8724;51.272;6.554;2022-12-31T07:02:18;1.00;;;0.90;;
4700;SDS011;8724;51.272;6.554;2022-12-31T07:05:07;3.30;;;1.13;;
4700;SDS011;8724;51.272;6.554;2022-12-31T07:07:47;3.10;;;1.10;;
4700;SDS011;8724;51.272;6.554;2022-12-31T07:10:25;1.03;;;0.93;;
4700;SDS011;8724;51.272;6.554;2022-12-31T07:13:09;3.30;;;1.00;;
4700;SDS011;8724;51.272;6.554;2022-12-31T07:15:52;1.73;;;1.07;;
4700;SDS011;8724;51.272;6.554;2022-12-31T07:18:35;0.90;;;0.73;;
4700;SDS011;8724;51.272;6.554;2022-12-31T07:21:10;1.70;;;0.93;;
4700;SDS011;8724;51.272;6.554;2022-12-31T07:23:40;2.30;;;1.00;;
4700;SDS011;8724;51.272;6.554;2022-12-31T07:26:13;2.20;;;1.20;;
4700;SDS011;8724;51.272;6.554;2022-12-31T07:28:55;0.70;;;0.70;;
4700;SDS011;8724;51.272;6.554;2022-12-31T07:31:33;1.10;;;1.00;;
4700;SDS011;8724;51.272;6.554;2022-12-31T07:34:14;1.23;;;1.07;;
4700;SDS011;8724;51.272;6.554;2022-12-31T07:36:53;2.60;;;1.40;;
4700;SDS011;8724;51.272;6.554;2022-12-31T07:39:32;1.90;;;1.03;;
4700;SDS011;8724;51.272;6.554;2022-12-31T07:42:09;1.50;;;1.00;;
4700;SDS011;8724;51.272;6.554;2022-12-31T07:44:48;1.80;;;1.00;;
4700;SDS011;8724;51.272;6.554;2022-12-31T07:47:26;1.90;;;1.17;;
4700;SDS011;8724;51.272;6.554;2022-12-31T07:49:56;2.83;;;1.00;;
4700;SDS011;8724;51.272;6.554;2022-12-31T07:52:25;7.03;;;1.33;;
4700;SDS011;8724;51.272;6.554;2022-12-31T07:54:55;2.73;;;1.10;;
4700;SDS011;8724;51.272;6.554;2022-12-31T07:57:26;2.20;;;0.90;;
4700;SDS011;8724;51.272;6.554;2022-12-31T08:00:07;1.73;;;1.17;;
4700;SDS011;8724;51.272;6.554;2022-12-31T08:05:33;2.10;;;0.90;;
4700;SDS011;8724;51.272;6.554;2022-12-31T08:08:12;2.13;;;1.27;;
4700;SDS011;8724;51.272;6.554;2022-12-31T08:10:54;1.63;;;1.20;;
4700;SDS011;8724;51.272;6.554;2022-12-31T08:13:34;1.10;;;0.90;;
4700;SDS011;8724;51.272;6.554;2022-12-31T08:16:06;1.67;;;0.97;;
4700;SDS011;8724;51.272;6.554;2022-12-31T08:18:39;1.23;;;0.90;;
4700;SDS011;8724;51.272;6.554;2022-12-31T08:21:11;1.93;;;1.07;;
4700;SDS011;8724;51.272;6.554;2022-12-31T08:23:48;2.50;;;0.90;;
4700;SDS011;8724;51.272;6.554;2022-12-31T08:26:28;0.77;;;0.70;;
4700;SDS011;8724;51.272;6.554;2022-12-31T08:29:05;1.60;;;1.00;;
4700;SDS011;8724;51.272;6.554;2022-12-31T08:31:47;2.30;;;1.20;;
4700;SDS011;8724;51.272;6.554;2022-12-31T08:34:25;6.37;;;1.40;;
4700;SDS011;8724;51.272;6.554;2022-12-31T08:37:02;2.63;;;1.00;;
4700;SDS011;8724;51.272;6.554;2022-12-31T08:39:43;1.33;;;1.10;;
4700;SDS011;8724;51.272;6.554;2022-12-31T08:42:26;2.27;;;0.90;;
4700;SDS011;8724;51.272;6.554;2022-12-31T08:45:01;2.80;;;1.20;;
4700;SDS011;8724;51.272;6.554;2022-12-31T08:47:39;2.90;;;0.97;;
4700;SDS011;8724;51.272;6.554;2022-12-31T08:50:13;1.23;;;1.07;;
4700;SDS011;8724;51.272;6.554;2022-12-31T08:52:53;2.00;;;1.10;;
4700;SDS011;8724;51.272;6.554;2022-12-31T08:55:22;3.60;;;1.40;;
4700;SDS011;8724;51.272;6.554;2022-12-31T08:57:54;2.90;;;1.10;;
4700;SDS011;8724;51.272;6.554;2022-12-31T09:00:34;6.20;;;1.40;;
4700;SDS011;8724;51.272;6.554;2022-12-31T09:03:17;3.23;;;1.03;;
4700;SDS011;8724;51.272;6.554;2022-12-31T09:05:59;1.93;;;1.00;;
4700;SDS011;8724;51.272;6.554;2022-12-31T09:08:35;1.70;;;1.20;;
4700;SDS011;8724;51.272;6.554;2022-12-31T09:11:17;1.20;;;1.03;;
4700;SDS011;8724;51.272;6.554;2022-12-31T09:13:56;1.87;;;1.13;;
4700;SDS011;8724;51.272;6.554;2022-12-31T09:16:43;1.63;;;1.10;;
4700;SDS011;8724;51.272;6.554;2022-12-31T09:19:19;2.40;;;1.10;;
4700;SDS011;8724;51.272;6.554;2022-12-31T09:21:48;5.00;;;1.50;;
4700;SDS011;8724;51.272;6.554;2022-12-31T09:24:17;3.33;;;1.50;;
4700;SDS011;8724;51.272;6.554;2022-12-31T09:26:49;1.70;;;1.10;;
4700;SDS011;8724;51.272;6.554;2022-12-31T09:29:32;1.70;;;1.13;;
4700;SDS011;8724;51.272;6.554;2022-12-31T09:32:13;1.77;;;1.07;;
4700;SDS011;8724;51.272;6.554;2022-12-31T09:34:53;3.07;;;1.13;;
4700;SDS011;8724;51.272;6.554;2022-12-31T09:37:30;1.87;;;1.13;;
4700;SDS011;8724;51.272;6.554;2022-12-31T09:40:11;1.73;;;1.00;;
4700;SDS011;8724;51.272;6.554;2022-12-31T09:43:07;1.00;;;0.77;;
4700;SDS011;8724;51.272;6.554;2022-12-31T09:46:08;3.37;;;1.20;;
4700;SDS011;8724;51.272;6.554;2022-12-31T09:48:59;3.10;;;1.40;;
4700;SDS011;8724;51.272;6.554;2022-12-31T09:51:54;3.07;;;1.10;;
4700;SDS011;8724;51.272;6.554;2022-12-31T09:54:35;3.37;;;1.20;;
4700;SDS011;8724;51.272;6.554;2022-12-31T09:57:17;2.23;;;1.40;;
4700;SDS011;8724;51.272;6.554;2022-12-31T09:59:56;3.23;;;1.40;;
4700;SDS011;8724;51.272;6.554;2022-12-31T10:02:46;3.13;;;1.30;;
4700;SDS011;8724;51.272;6.554;2022-12-31T10:08:17;3.80;;;1.40;;
4700;SDS011;8724;51.272;6.554;2022-12-31T10:11:04;5.73;;;1.20;;
4700;SDS011;8724;51.272;6.554;2022-12-31T10:13:45;1.30;;;0.90;;
4700;SDS011;8724;51.272;6.554;2022-12-31T10:19:22;2.87;;;0.93;;
4700;SDS011;8724;51.272;6.554;2022-12-31T10:22:06;1.90;;;1.43;;
4700;SDS011;8724;51.272;6.554;2022-12-31T10:24:56;2.03;;;1.20;;
4700;SDS011;8724;51.272;6.554;2022-12-31T10:28:05;2.00;;;1.20;;
4700;SDS011;8724;51.272;6.554;2022-12-31T10:30:47;1.10;;;1.00;;
4700;SDS011;8724;51.272;6.554;2022-12-31T10:33:30;4.57;;;1.00;;
4700;SDS011;8724;51.272;6.554;2022-12-31T10:36:08;2.47;;;1.20;;
4700;SDS011;8724;51.272;6.554;2022-12-31T10:39:00;3.23;;;1.17;;
4700;SDS011;8724;51.272;6.554;2022-12-31T10:41:48;3.37;;;1.43;;
4700;SDS011;8724;51.272;6.554;2022-12-31T10:48:13;3.77;;;1.23;;
4700;SDS011;8724;51.272;6.554;2022-12-31T11:01:00;2.93;;;1.23;;
4700;SDS011;8724;51.272;6.554;2022-12-31T11:03:53;4.20;;;1.57;;
4700;SDS011;8724;51.272;6.554;2022-12-31T11:09:53;2.50;;;1.30;;
4700;SDS011;8724;51.272;6.554;2022-12-31T11:16:03;3.33;;;1.40;;
4700;SDS011;8724;51.272;6.554;2022-12-31T11:19:04;4.57;;;1.83;;
4700;SDS011;8724;51.272;6.554;2022-12-31T11:21:45;4.90;;;1.50;;
4700;SDS011;8724;51.272;6.554;2022-12-31T11:24:29;2.83;;;1.33;;
4700;SDS011;8724;51.272;6.554;2022-12-31T11:27:18;8.90;;;2.33;;
4700;SDS011;8724;51.272;6.554;2022-12-31T11:30:03;4.30;;;1.40;;
4700;SDS011;8724;51.272;6.554;2022-12-31T11:32:44;4.90;;;1.47;;
4700;SDS011;8724;51.272;6.554;2022-12-31T11:35:21;3.43;;;1.63;;
4700;SDS011;8724;51.272;6.554;2022-12-31T11:37:58;5.20;;;1.90;;
4700;SDS011;8724;51.272;6.554;2022-12-31T11:40:35;3.10;;;1.20;;
4700;SDS011;8724;51.272;6.554;2022-12-31T11:43:10;2.13;;;1.00;;
4700;SDS011;8724;51.272;6.554;2022-12-31T11:45:55;1.83;;;1.20;;
4700;SDS011;8724;51.272;6.554;2022-12-31T11:48:49;5.03;;;1.10;;
4700;SDS011;8724;51.272;6.554;2022-12-31T11:51:36;2.67;;;1.30;;
4700;SDS011;8724;51.272;6.554;2022-12-31T11:54:26;5.87;;;1.70;;
4700;SDS011;8724;51.272;6.554;2022-12-31T11:57:07;5.87;;;1.57;;
4700;SDS011;8724;51.272;6.554;2022-12-31T11:59:43;3.57;;;1.33;;
4700;SDS011;8724;51.272;6.554;2022-12-31T12:02:20;2.80;;;1.40;;
4700;SDS011;8724;51.272;6.554;2022-12-31T12:04:56;2.07;;;1.30;;
4700;SDS011;8724;51.272;6.554;2022-12-31T12:07:36;1.67;;;1.30;;
4700;SDS011;8724;51.272;6.554;2022-12-31T12:10:13;2.47;;;1.30;;
4700;SDS011;8724;51.272;6.554;2022-12-31T12:12:46;5.87;;;1.60;;
4700;SDS011;8724;51.272;6.554;2022-12-31T12:15:17;2.03;;;1.47;;
4700;SDS011;8724;51.272;6.554;2022-12-31T12:17:53;1.93;;;1.20;;
4700;SDS011;8724;51.272;6.554;2022-12-31T12:20:29;3.50;;;1.60;;
4700;SDS011;8724;51.272;6.554;2022-12-31T12:23:00;3.63;;;1.63;;
4700;SDS011;8724;51.272;6.554;2022-12-31T12:25:41;7.47;;;2.00;;
4700;SDS011;8724;51.272;6.554;2022-12-31T12:28:16;14.10;;;10.20;;
4700;SDS011;8724;51.272;6.554;2022-12-31T12:30:51;20.53;;;15.00;;
4700;SDS011;8724;51.272;6.554;2022-12-31T12:33:22;5.70;;;3.00;;
4700;SDS011;8724;51.272;6.554;2022-12-31T12:35:54;1.70;;;1.40;;
4700;SDS011;8724;51.272;6.554;2022-12-31T12:38:42;6.33;;;1.40;;
4700;SDS011;8724;51.272;6.554;2022-12-31T12:41:21;1.27;;;1.17;;
4700;SDS011;8724;51.272;6.554;2022-12-31T12:44:02;2.70;;;1.73;;
4700;SDS011;8724;51.272;6.554;2022-12-31T12:46:42;1.93;;;1.30;;
4700;SDS011;8724;51.272;6.554;2022-12-31T12:49:24;3.43;;;1.47;;
4700;SDS011;8724;51.272;6.554;2022-12-31T12:52:08;6.10;;;1.50;;
4700;SDS011;8724;51.272;6.554;2022-12-31T12:55:06;3.20;;;1.80;;
4700;SDS011;8724;51.272;6.554;2022-12-31T12:57:49;2.20;;;1.13;;
4700;SDS011;8724;51.272;6.554;2022-12-31T13:00:27;3.70;;;1.60;;
4700;SDS011;8724;51.272;6.554;2022-12-31T13:03:14;4.67;;;1.40;;
4700;SDS011;8724;51.272;6.554;2022-12-31T13:06:01;2.33;;;1.30;;
4700;SDS011;8724;51.272;6.554;2022-12-31T13:08:48;1.53;;;1.43;;
4700;SDS011;8724;51.272;6.554;2022-12-31T13:11:29;2.80;;;1.40;;
4700;SDS011;8724;51.272;6.554;2022-12-31T13:14:09;3.77;;;1.40;;
4700;SDS011;8724;51.272;6.554;2022-12-31T13:16:49;4.90;;;1.83;;
4700;SDS011;8724;51.272;6.554;2022-12-31T13:19:28;5.20;;;1.67;;
4700;SDS011;8724;51.272;6.554;2022-12-31T13:22:04;3.93;;;1.27;;
4700;SDS011;8724;51.272;6.554;2022-12-31T13:24:45;6.17;;;1.63;;
4700;SDS011;8724;51.272;6.554;2022-12-31T13:27:22;4.77;;;1.80;;
4700;SDS011;8724;51.272;6.554;2022-12-31T13:29:58;2.07;;;1.47;;
4700;SDS011;8724;51.272;6.554;2022-12-31T13:32:33;6.50;;;1.53;;
4700;SDS011;8724;51.272;6.554;2022-12-31T13:35:17;2.70;;;1.50;;
4700;SDS011;8724;51.272;6.554;2022-12-31T13:37:50;2.77;;;1.20;;
4700;SDS011;8724;51.272;6.554;2022-12-31T13:40:34;2.23;;;1.17;;
4700;SDS011;8724;51.272;6.554;2022-12-31T13:43:14;2.10;;;1.80;;
4700;SDS011;8724;51.272;6.554;2022-12-31T13:45:53;2.03;;;1.10;;
4700;SDS011;8724;51.272;6.554;2022-12-31T13:48:39;3.07;;;1.60;;
4700;SDS011;8724;51.272;6.554;2022-12-31T13:51:17;2.93;;;1.77;;
4700;SDS011;8724;51.272;6.554;2022-12-31T13:53:56;2.93;;;1.70;;
4700;SDS011;8724;51.272;6.554;2022-12-31T13:56:34;8.63;;;1.90;;
4700;SDS011;8724;51.272;6.554;2022-12-31T13:59:10;4.00;;;1.50;;
4700;SDS011;8724;51.272;6.554;2022-12-31T14:01:44;4.93;;;1.83;;
4700;SDS011;8724;51.272;6.554;2022-12-31T14:04:23;7.03;;;2.30;;
4700;SDS011;8724;51.272;6.554;2022-12-31T14:06:58;4.80;;;1.70;;
4700;SDS011;8724;51.272;6.554;2022-12-31T14:09:33;4.83;;;2.20;;
4700;SDS011;8724;51.272;6.554;2022-12-31T14:15:02;6.70;;;2.30;;
4700;SDS011;8724;51.272;6.554;2022-12-31T14:17:40;3.17;;;1.43;;
4700;SDS011;8724;51.272;6.554;2022-12-31T14:20:19;8.20;;;2.10;;
4700;SDS011;8724;51.272;6.554;2022-12-31T14:22:58;24.53;;;18.40;;
4700;SDS011;8724;51.272;6.554;2022-12-31T14:25:40;16.27;;;11.87;;
4700;SDS011;8724;51.272;6.554;2022-12-31T14:28:17;10.10;;;6.77;;
4700;SDS011;8724;51.272;6.554;2022-12-31T14:30:51;8.83;;;4.33;;
4700;SDS011;8724;51.272;6.554;2022-12-31T14:33:30;3.40;;;2.47;;
4700;SDS011;8724;51.272;6.554;2022-12-31T14:36:14;2.67;;;1.93;;
4700;SDS011;8724;51.272;6.554;2022-12-31T14:39:00;5.90;;;2.40;;
4700;SDS011;8724;51.272;6.554;2022-12-31T14:41:44;2.83;;;1.97;;
4700;SDS011;8724;51.272;6.554;2022-12-31T14:44:28;2.73;;;1.67;;
4700;SDS011;8724;51.272;6.554;2022-12-31T14:47:11;3.90;;;1.90;;
4700;SDS011;8724;51.272;6.554;2022-12-31T14:49:52;3.90;;;1.90;;
4700;SDS011;8724;51.272;6.554;2022-12-31T14:52:31;4.60;;;1.97;;
4700;SDS011;8724;51.272;6.554;2022-12-31T14:55:02;3.40;;;1.63;;
4700;SDS011;8724;51.272;6.554;2022-12-31T14:57:48;2.30;;;1.30;;
4700;SDS011;8724;51.272;6.554;2022-12-31T15:00:38;2.53;;;1.73;;
4700;SDS011;8724;51.272;6.554;2022-12-31T15:03:23;2.30;;;1.53;;
4700;SDS011;8724;51.272;6.554;2022-12-31T15:05:53;4.33;;;1.60;;
4700;SDS011;8724;51.272;6.554;2022-12-31T15:08:34;2.20;;;1.67;;
4700;SDS011;8724;51.272;6.554;2022-12-31T15:17:11;1.87;;;1.77;;
4700;SDS011;8724;51.272;6.554;2022-12-31T15:20:02;3.10;;;2.10;;
4700;SDS011;8724;51.272;6.554;2022-12-31T15:22:45;3.20;;;2.10;;
4700;SDS011;8724;51.272;6.554;2022-12-31T15:25:21;2.40;;;1.80;;
4700;SDS011;8724;51.272;6.554;2022-12-31T15:27:54;3.93;;;2.20;;
4700;SDS011;8724;51.272;6.554;2022-12-31T15:33:19;3.60;;;2.07;;
4700;SDS011;8724;51.272;6.554;2022-12-31T15:35:56;3.20;;;1.93;;
4700;SDS011;8724;51.272;6.554;2022-12-31T15:38:37;3.43;;;1.90;;
4700;SDS011;8724;51.272;6.554;2022-12-31T15:41:15;2.40;;;1.80;;
4700;SDS011;8724;51.272;6.554;2022-12-31T15:43:56;5.93;;;2.50;;
4700;SDS011;8724;51.272;6.554;2022-12-31T15:46:30;3.00;;;2.17;;
4700;SDS011;8724;51.272;6.554;2022-12-31T15:49:03;3.53;;;1.97;;
4700;SDS011;8724;51.272;6.554;2022-12-31T15:51:44;4.60;;;2.10;;
4700;SDS011;8724;51.272;6.554;2022-12-31T15:54:23;2.03;;;1.47;;
4700;SDS011;8724;51.272;6.554;2022-12-31T15:57:06;2.20;;;1.40;;
4700;SDS011;8724;51.272;6.554;2022-12-31T15:59:42;3.30;;;1.80;;
4700;SDS011;8724;51.272;6.554;2022-12-31T16:02:16;8.13;;;2.03;;
4700;SDS011;8724;51.272;6.554;2022-12-31T16:04:49;3.87;;;1.63;;
4700;SDS011;8724;51.272;6.554;2022-12-31T16:07:18;1.63;;;1.53;;
4700;SDS011;8724;51.272;6.554;2022-12-31T16:09:49;7.70;;;1.93;;
4700;SDS011;8724;51.272;6.554;2022-12-31T16:12:21;17.93;;;11.77;;
4700;SDS011;8724;51.272;6.554;2022-12-31T16:15:00;17.63;;;12.97;;
4700;SDS011;8724;51.272;6.554;2022-12-31T16:17:31;12.20;;;7.50;;
4700;SDS011;8724;51.272;6.554;2022-12-31T16:22:51;5.30;;;4.77;;
4700;SDS011;8724;51.272;6.554;2022-12-31T16:25:21;3.53;;;3.23;;
4700;SDS011;8724;51.272;6.554;2022-12-31T16:28:00;5.77;;;3.50;;
4700;SDS011;8724;51.272;6.554;2022-12-31T16:30:30;4.83;;;3.10;;
4700;SDS011;8724;51.272;6.554;2022-12-31T16:33:03;4.33;;;2.93;;
4700;SDS011;8724;51.272;6.554;2022-12-31T16:35:37;4.10;;;2.60;;
4700;SDS011;8724;51.272;6.554;2022-12-31T16:38:10;8.33;;;4.10;;
4700;SDS011;8724;51.272;6.554;2022-12-31T16:40:43;4.87;;;3.00;;
4700;SDS011;8724;51.272;6.554;2022-12-31T16:43:35;2.63;;;2.07;;
4700;SDS011;8724;51.272;6.554;2022-12-31T16:46:08;4.10;;;1.77;;
4700;SDS011;8724;51.272;6.554;2022-12-31T16:48:43;2.27;;;1.57;;
4700;SDS011;8724;51.272;6.554;2022-12-31T16:51:15;2.30;;;2.10;;